sensor_id;sensor_type;location;lat;lon;timestamp;pressure;altitude;pressure_sealevel;temperature;humidity
12468;BME280;57850;52.922;6.256;2023-09-07T00:01:26;102408.47;;;24.79;nan
12468;BME280;57850;52.922;6.256;2023-09-07T00:03:53;102407.75;;;24.90;nan
12468;BME280;57850;52.922;6.256;2023-09-07T00:06:20;102413.53;;;24.84;nan
12468;BME280;57850;52.922;6.256;2023-09-07T00:08:47;102415.34;;;24.83;nan
12468;BME280;57850;52.922;6.256;2023-09-07T00:11:15;102405.50;;;24.71;nan
12468;BME280;57850;52.922;6.256;2023-09-07T00:13:42;102401.84;;;24.72;nan
12468;BME280;57850;52.922;6.256;2023-09-07T00:16:09;102409.66;;;24.63;nan
12468;BME280;57850;52.922;6.256;2023-09-07T00:18:36;102403.06;;;24.56;nan
12468;BME280;57850;52.922;6.256;2023-09-07T00:21:03;102407.84;;;24.38;nan
12468;BME280;57850;52.922;6.256;2023-09-07T00:23:29;102402.41;;;24.52;nan
12468;BME280;57850;52.922;6.256;2023-09-07T00:25:56;102404.53;;;24.60;nan
12468;BME280;57850;52.922;6.256;2023-09-07T00:28:24;102411.44;;;24.62;nan
12468;BME280;57850;52.922;6.256;2023-09-07T00:30:51;102408.25;;;24.44;nan
12468;BME280;57850;52.922;6.256;2023-09-07T00:33:17;102410.72;;;24.35;nan
12468;BME280;57850;52.922;6.256;2023-09-07T00:35:44;102411.06;;;24.43;nan
12468;BME280;57850;52.922;6.256;2023-09-07T00:38:10;102402.63;;;24.49;nan
12468;BME280;57850;52.922;6.256;2023-09-07T00:40:37;102402.28;;;24.53;nan
12468;BME280;57850;52.922;6.256;2023-09-07T00:43:04;102401.22;;;24.56;nan
12468;BME280;57850;52.922;6.256;2023-09-07T00:45:32;102409.88;;;24.47;nan
12468;BME280;57850;52.922;6.256;2023-09-07T00:47:59;102402.84;;;24.46;nan
12468;BME280;57850;52.922;6.256;2023-09-07T00:50:25;102409.03;;;24.34;nan
12468;BME280;57850;52.922;6.256;2023-09-07T00:52:52;102403.34;;;24.38;nan
12468;BME280;57850;52.922;6.256;2023-09-07T00:55:19;102409.97;;;24.33;nan
12468;BME280;57850;52.922;6.256;2023-09-07T00:57:47;102399.94;;;24.24;nan
12468;BME280;57850;52.922;6.256;2023-09-07T01:00:14;102404.22;;;24.26;nan
12468;BME280;57850;52.922;6.256;2023-09-07T01:02:42;102403.47;;;24.24;nan
12468;BME280;57850;52.922;6.256;2023-09-07T01:05:10;102401.31;;;24.29;nan
12468;BME280;57850;52.922;6.256;2023-09-07T01:07:43;102397.72;;;24.30;nan
12468;BME280;57850;52.922;6.256;2023-09-07T01:10:11;102402.59;;;24.24;nan
12468;BME280;57850;52.922;6.256;2023-09-07T01:12:39;102407.09;;;24.23;nan
12468;BME280;57850;52.922;6.256;2023-09-07T01:15:06;102399.94;;;24.24;nan
12468;BME280;57850;52.922;6.256;2023-09-07T01:17:34;102402.06;;;24.19;nan
12468;BME280;57850;52.922;6.256;2023-09-07T01:20:04;102397.25;;;24.11;nan
12468;BME280;57850;52.922;6.256;2023-09-07T01:22:36;102395.63;;;24.09;nan
12468;BME280;57850;52.922;6.256;2023-09-07T01:25:04;102397.94;;;24.00;nan
12468;BME280;57850;52.922;6.256;2023-09-07T01:27:32;102395.84;;;24.06;nan
12468;BME280;57850;52.922;6.256;2023-09-07T01:29:59;102398.81;;;24.01;nan
12468;BME280;57850;52.922;6.256;2023-09-07T01:32:26;102391.09;;;23.96;nan
12468;BME280;57850;52.922;6.256;2023-09-07T01:34:55;102395.78;;;23.80;nan
12468;BME280;57850;52.922;6.256;2023-09-07T01:37:23;102395.47;;;23.85;nan
12468;BME280;57850;52.922;6.256;2023-09-07T01:39:51;102402.88;;;23.67;nan
12468;BME280;57850;52.922;6.256;2023-09-07T01:42:18;102397.63;;;23.66;nan
12468;BME280;57850;52.922;6.256;2023-09-07T01:44:47;102397.91;;;23.49;nan
12468;BME280;57850;52.922;6.256;2023-09-07T01:47:13;102390.19;;;23.44;nan
12468;BME280;57850;52.922;6.256;2023-09-07T01:49:40;102398.69;;;23.22;nan
12468;BME280;57850;52.922;6.256;2023-09-07T01:52:06;102396.22;;;23.19;nan
12468;BME280;57850;52.922;6.256;2023-09-07T01:54:33;102394.56;;;23.31;nan
12468;BME280;57850;52.922;6.256;2023-09-07T01:57:01;102385.25;;;23.38;nan
12468;BME280;57850;52.922;6.256;2023-09-07T01:59:28;102392.38;;;23.52;nan
12468;BME280;57850;52.922;6.256;2023-09-07T02:01:54;102383.66;;;23.62;nan
12468;BME280;57850;52.922;6.256;2023-09-07T02:04:21;102394.22;;;23.64;nan
12468;BME280;57850;52.922;6.256;2023-09-07T02:06:48;102396.72;;;23.53;nan
12468;BME280;57850;52.922;6.256;2023-09-07T02:09:14;102394.59;;;23.45;nan
12468;BME280;57850;52.922;6.256;2023-09-07T02:11:41;102393.63;;;23.46;nan
12468;BME280;57850;52.922;6.256;2023-09-07T02:14:09;102395.75;;;23.27;nan
12468;BME280;57850;52.922;6.256;2023-09-07T02:16:36;102405.13;;;22.91;nan
12468;BME280;57850;52.922;6.256;2023-09-07T02:19:04;102401.88;;;22.58;nan
12468;BME280;57850;52.922;6.256;2023-09-07T02:21:32;102395.06;;;22.24;nan
12468;BME280;57850;52.922;6.256;2023-09-07T02:23:58;102392.53;;;22.37;nan
12468;BME280;57850;52.922;6.256;2023-09-07T02:26:25;102392.25;;;22.41;nan
12468;BME280;57850;52.922;6.256;2023-09-07T02:28:52;102385.63;;;22.49;nan
12468;BME280;57850;52.922;6.256;2023-09-07T02:31:20;102395.72;;;22.72;nan
12468;BME280;57850;52.922;6.256;2023-09-07T02:33:47;102406.25;;;22.45;nan
12468;BME280;57850;52.922;6.256;2023-09-07T02:36:13;102399.38;;;21.97;nan
12468;BME280;57850;52.922;6.256;2023-09-07T02:38:40;102394.38;;;22.07;nan
12468;BME280;57850;52.922;6.256;2023-09-07T02:41:07;102381.50;;;22.29;nan
12468;BME280;57850;52.922;6.256;2023-09-07T02:43:33;102375.44;;;22.41;nan
12468;BME280;57850;52.922;6.256;2023-09-07T02:46:00;102370.50;;;22.35;nan
12468;BME280;57850;52.922;6.256;2023-09-07T02:48:29;102374.69;;;22.39;nan
12468;BME280;57850;52.922;6.256;2023-09-07T02:50:55;102378.56;;;22.33;nan
12468;BME280;57850;52.922;6.256;2023-09-07T02:53:23;102374.22;;;22.32;nan
12468;BME280;57850;52.922;6.256;2023-09-07T02:55:50;102380.53;;;22.16;nan
12468;BME280;57850;52.922;6.256;2023-09-07T02:58:16;102387.84;;;21.82;nan
12468;BME280;57850;52.922;6.256;2023-09-07T03:00:44;102378.72;;;21.86;nan
12468;BME280;57850;52.922;6.256;2023-09-07T03:03:12;102380.47;;;21.72;nan
12468;BME280;57850;52.922;6.256;2023-09-07T03:05:41;102365.53;;;21.85;nan
12468;BME280;57850;52.922;6.256;2023-09-07T03:08:08;102373.22;;;22.05;nan
12468;BME280;57850;52.922;6.256;2023-09-07T03:10:35;102375.97;;;22.04;nan
12468;BME280;57850;52.922;6.256;2023-09-07T03:13:02;102370.44;;;22.07;nan
12468;BME280;57850;52.922;6.256;2023-09-07T03:15:29;102371.38;;;22.06;nan
12468;BME280;57850;52.922;6.256;2023-09-07T03:17:55;102365.41;;;22.02;nan
12468;BME280;57850;52.922;6.256;2023-09-07T03:20:22;102370.91;;;21.83;nan
12468;BME280;57850;52.922;6.256;2023-09-07T03:22:50;102364.78;;;21.83;nan
12468;BME280;57850;52.922;6.256;2023-09-07T03:25:17;102366.38;;;21.85;nan
12468;BME280;57850;52.922;6.256;2023-09-07T03:27:43;102370.84;;;21.85;nan
12468;BME280;57850;52.922;6.256;2023-09-07T03:30:11;102371.03;;;21.82;nan
12468;BME280;57850;52.922;6.256;2023-09-07T03:32:37;102375.94;;;21.74;nan
12468;BME280;57850;52.922;6.256;2023-09-07T03:35:04;102370.78;;;21.71;nan
12468;BME280;57850;52.922;6.256;2023-09-07T03:37:34;102365.94;;;21.63;nan
12468;BME280;57850;52.922;6.256;2023-09-07T03:40:03;102366.53;;;21.53;nan
12468;BME280;57850;52.922;6.256;2023-09-07T03:42:31;102365.34;;;21.43;nan
12468;BME280;57850;52.922;6.256;2023-09-07T03:44:57;102366.28;;;21.57;nan
12468;BME280;57850;52.922;6.256;2023-09-07T03:47:24;102363.22;;;21.79;nan
12468;BME280;57850;52.922;6.256;2023-09-07T03:49:54;102356.63;;;21.86;nan
12468;BME280;57850;52.922;6.256;2023-09-07T03:52:20;102357.44;;;21.86;nan
12468;BME280;57850;52.922;6.256;2023-09-07T03:54:49;102374.44;;;21.84;nan
12468;BME280;57850;52.922;6.256;2023-09-07T03:57:18;102371.59;;;21.87;nan
12468;BME280;57850;52.922;6.256;2023-09-07T03:59:44;102368.41;;;21.66;nan
12468;BME280;57850;52.922;6.256;2023-09-07T04:02:11;102383.47;;;21.20;nan
12468;BME280;57850;52.922;6.256;2023-09-07T04:04:38;102356.94;;;20.88;nan
12468;BME280;57850;52.922;6.256;2023-09-07T04:07:04;102343.34;;;20.94;nan
12468;BME280;57850;52.922;6.256;2023-09-07T04:09:31;102335.50;;;21.23;nan
12468;BME280;57850;52.922;6.256;2023-09-07T04:11:58;102346.78;;;21.27;nan
12468;BME280;57850;52.922;6.256;2023-09-07T04:14:25;102355.88;;;21.39;nan
12468;BME280;57850;52.922;6.256;2023-09-07T04:16:53;102362.09;;;21.38;nan
12468;BME280;57850;52.922;6.256;2023-09-07T04:19:20;102351.28;;;21.56;nan
12468;BME280;57850;52.922;6.256;2023-09-07T04:21:46;102363.56;;;21.43;nan
12468;BME280;57850;52.922;6.256;2023-09-07T04:24:13;102364.59;;;21.41;nan
12468;BME280;57850;52.922;6.256;2023-09-07T04:26:39;102358.78;;;21.34;nan
12468;BME280;57850;52.922;6.256;2023-09-07T04:29:06;102358.53;;;21.23;nan
12468;BME280;57850;52.922;6.256;2023-09-07T04:31:35;102357.66;;;21.07;nan
12468;BME280;57850;52.922;6.256;2023-09-07T04:34:01;102360.84;;;21.13;nan
12468;BME280;57850;52.922;6.256;2023-09-07T04:36:28;102358.88;;;21.32;nan
12468;BME280;57850;52.922;6.256;2023-09-07T04:38:55;102351.66;;;21.34;nan
12468;BME280;57850;52.922;6.256;2023-09-07T04:41:21;102360.22;;;21.40;nan
12468;BME280;57850;52.922;6.256;2023-09-07T04:43:48;102359.59;;;21.50;nan
12468;BME280;57850;52.922;6.256;2023-09-07T04:46:14;102362.88;;;21.40;nan
12468;BME280;57850;52.922;6.256;2023-09-07T04:48:43;102363.84;;;21.23;nan
12468;BME280;57850;52.922;6.256;2023-09-07T04:51:10;102368.53;;;21.18;nan
12468;BME280;57850;52.922;6.256;2023-09-07T04:53:38;102365.66;;;20.74;nan
12468;BME280;57850;52.922;6.256;2023-09-07T04:56:06;102353.00;;;20.79;nan
12468;BME280;57850;52.922;6.256;2023-09-07T04:58:34;102348.13;;;20.87;nan
12468;BME280;57850;52.922;6.256;2023-09-07T05:01:02;102358.22;;;20.96;nan
12468;BME280;57850;52.922;6.256;2023-09-07T05:03:29;102362.84;;;21.08;nan
12468;BME280;57850;52.922;6.256;2023-09-07T05:05:57;102369.91;;;21.09;nan
12468;BME280;57850;52.922;6.256;2023-09-07T05:08:24;102368.31;;;20.90;nan
12468;BME280;57850;52.922;6.256;2023-09-07T05:10:54;102368.31;;;20.41;nan
12468;BME280;57850;52.922;6.256;2023-09-07T05:13:22;102361.97;;;20.61;nan
12468;BME280;57850;52.922;6.256;2023-09-07T05:15:48;102369.97;;;20.76;nan
12468;BME280;57850;52.922;6.256;2023-09-07T05:18:15;102363.53;;;20.96;nan
12468;BME280;57850;52.922;6.256;2023-09-07T05:20:42;102371.16;;;21.02;nan
12468;BME280;57850;52.922;6.256;2023-09-07T05:23:11;102384.38;;;21.04;nan
12468;BME280;57850;52.922;6.256;2023-09-07T05:25:43;102385.50;;;21.15;nan
12468;BME280;57850;52.922;6.256;2023-09-07T05:28:10;102381.91;;;21.16;nan
12468;BME280;57850;52.922;6.256;2023-09-07T05:30:36;102384.28;;;21.21;nan
12468;BME280;57850;52.922;6.256;2023-09-07T05:33:03;102386.19;;;21.19;nan
12468;BME280;57850;52.922;6.256;2023-09-07T05:35:30;102378.19;;;21.03;nan
12468;BME280;57850;52.922;6.256;2023-09-07T05:37:57;102385.28;;;21.03;nan
12468;BME280;57850;52.922;6.256;2023-09-07T05:40:27;102385.91;;;21.08;nan
12468;BME280;57850;52.922;6.256;2023-09-07T05:42:54;102383.72;;;21.16;nan
12468;BME280;57850;52.922;6.256;2023-09-07T05:45:20;102377.38;;;21.18;nan
12468;BME280;57850;52.922;6.256;2023-09-07T05:47:47;102372.34;;;21.14;nan
12468;BME280;57850;52.922;6.256;2023-09-07T05:50:14;102373.59;;;21.38;nan
12468;BME280;57850;52.922;6.256;2023-09-07T05:52:40;102379.63;;;21.56;nan
12468;BME280;57850;52.922;6.256;2023-09-07T05:55:07;102377.31;;;21.65;nan
12468;BME280;57850;52.922;6.256;2023-09-07T05:57:35;102381.25;;;21.74;nan
12468;BME280;57850;52.922;6.256;2023-09-07T06:00:02;102385.53;;;21.76;nan
12468;BME280;57850;52.922;6.256;2023-09-07T06:02:29;102378.31;;;21.78;nan
12468;BME280;57850;52.922;6.256;2023-09-07T06:04:56;102384.66;;;21.92;nan
12468;BME280;57850;52.922;6.256;2023-09-07T06:07:23;102383.72;;;21.93;nan
12468;BME280;57850;52.922;6.256;2023-09-07T06:09:49;102383.75;;;22.07;nan
12468;BME280;57850;52.922;6.256;2023-09-07T06:12:16;102388.13;;;22.08;nan
12468;BME280;57850;52.922;6.256;2023-09-07T06:14:44;102392.63;;;22.35;nan
12468;BME280;57850;52.922;6.256;2023-09-07T06:17:11;102399.50;;;22.39;nan
12468;BME280;57850;52.922;6.256;2023-09-07T06:19:38;102405.00;;;22.65;nan
12468;BME280;57850;52.922;6.256;2023-09-07T06:22:05;102409.81;;;22.74;nan
12468;BME280;57850;52.922;6.256;2023-09-07T06:24:32;102404.56;;;22.72;nan
12468;BME280;57850;52.922;6.256;2023-09-07T06:26:58;102409.78;;;22.88;nan
12468;BME280;57850;52.922;6.256;2023-09-07T06:29:25;102410.34;;;22.93;nan
12468;BME280;57850;52.922;6.256;2023-09-07T06:31:53;102410.44;;;22.91;nan
12468;BME280;57850;52.922;6.256;2023-09-07T06:34:20;102411.41;;;22.90;nan
12468;BME280;57850;52.922;6.256;2023-09-07T06:36:46;102410.34;;;22.93;nan
12468;BME280;57850;52.922;6.256;2023-09-07T06:39:13;102411.19;;;23.08;nan
12468;BME280;57850;52.922;6.256;2023-09-07T06:41:40;102415.06;;;23.16;nan
12468;BME280;57850;52.922;6.256;2023-09-07T06:44:07;102422.25;;;23.02;nan
12468;BME280;57850;52.922;6.256;2023-09-07T06:46:34;102420.13;;;23.21;nan
12468;BME280;57850;52.922;6.256;2023-09-07T06:49:02;102426.19;;;23.23;nan
12468;BME280;57850;52.922;6.256;2023-09-07T06:51:31;102415.50;;;23.37;nan
12468;BME280;57850;52.922;6.256;2023-09-07T06:53:58;102412.94;;;23.35;nan
12468;BME280;57850;52.922;6.256;2023-09-07T06:56:24;102426.84;;;23.40;nan
12468;BME280;57850;52.922;6.256;2023-09-07T06:58:52;102421.50;;;23.55;nan
12468;BME280;57850;52.922;6.256;2023-09-07T07:01:18;102423.63;;;23.62;nan
12468;BME280;57850;52.922;6.256;2023-09-07T07:03:45;102430.22;;;23.57;nan
12468;BME280;57850;52.922;6.256;2023-09-07T07:06:13;102440.66;;;23.74;nan
12468;BME280;57850;52.922;6.256;2023-09-07T07:08:40;102433.31;;;23.77;nan
12468;BME280;57850;52.922;6.256;2023-09-07T07:11:06;102439.25;;;23.81;nan
12468;BME280;57850;52.922;6.256;2023-09-07T07:13:33;102448.16;;;23.94;nan
12468;BME280;57850;52.922;6.256;2023-09-07T07:16:02;102448.81;;;24.12;nan
12468;BME280;57850;52.922;6.256;2023-09-07T07:18:29;102449.56;;;23.99;nan
12468;BME280;57850;52.922;6.256;2023-09-07T07:20:55;102454.56;;;23.91;nan
12468;BME280;57850;52.922;6.256;2023-09-07T07:23:24;102454.13;;;24.12;nan
12468;BME280;57850;52.922;6.256;2023-09-07T07:25:50;102454.97;;;24.12;nan
12468;BME280;57850;52.922;6.256;2023-09-07T07:28:17;102440.50;;;24.41;nan
12468;BME280;57850;52.922;6.256;2023-09-07T07:30:44;102448.94;;;24.48;nan
12468;BME280;57850;52.922;6.256;2023-09-07T07:33:10;102446.94;;;24.51;nan
12468;BME280;57850;52.922;6.256;2023-09-07T07:35:38;102443.31;;;24.52;nan
12468;BME280;57850;52.922;6.256;2023-09-07T07:38:04;102437.31;;;24.74;nan
12468;BME280;57850;52.922;6.256;2023-09-07T07:40:32;102437.75;;;24.81;nan
12468;BME280;57850;52.922;6.256;2023-09-07T07:42:59;102444.56;;;24.72;nan
12468;BME280;57850;52.922;6.256;2023-09-07T07:45:26;102432.50;;;25.04;nan
12468;BME280;57850;52.922;6.256;2023-09-07T07:47:53;102438.56;;;25.07;nan
12468;BME280;57850;52.922;6.256;2023-09-07T07:50:19;102430.81;;;25.40;nan
12468;BME280;57850;52.922;6.256;2023-09-07T07:52:46;102431.31;;;25.45;nan
12468;BME280;57850;52.922;6.256;2023-09-07T07:55:12;102423.88;;;25.85;nan
12468;BME280;57850;52.922;6.256;2023-09-07T07:57:40;102417.41;;;25.76;nan
12468;BME280;57850;52.922;6.256;2023-09-07T08:00:08;102419.31;;;25.98;nan
12468;BME280;57850;52.922;6.256;2023-09-07T08:02:35;102422.13;;;25.96;nan
12468;BME280;57850;52.922;6.256;2023-09-07T08:05:03;102415.31;;;26.38;nan
12468;BME280;57850;52.922;6.256;2023-09-07T08:07:30;102411.06;;;26.36;nan
12468;BME280;57850;52.922;6.256;2023-09-07T08:09:57;102408.28;;;26.48;nan
12468;BME280;57850;52.922;6.256;2023-09-07T08:12:23;102407.56;;;26.69;nan
12468;BME280;57850;52.922;6.256;2023-09-07T08:14:51;102391.00;;;27.08;nan
12468;BME280;57850;52.922;6.256;2023-09-07T08:17:18;102386.19;;;27.45;nan
12468;BME280;57850;52.922;6.256;2023-09-07T08:19:45;102397.22;;;26.97;nan
12468;BME280;57850;52.922;6.256;2023-09-07T08:22:13;102399.88;;;27.08;nan
12468;BME280;57850;52.922;6.256;2023-09-07T08:24:41;102386.19;;;27.77;nan
12468;BME280;57850;52.922;6.256;2023-09-07T08:27:09;102399.50;;;27.13;nan
12468;BME280;57850;52.922;6.256;2023-09-07T08:29:36;102396.47;;;27.92;nan
12468;BME280;57850;52.922;6.256;2023-09-07T08:32:05;102379.47;;;28.24;nan
12468;BME280;57850;52.922;6.256;2023-09-07T08:34:33;102374.91;;;27.83;nan
12468;BME280;57850;52.922;6.256;2023-09-07T08:37:02;102376.41;;;28.07;nan
12468;BME280;57850;52.922;6.256;2023-09-07T08:39:32;102357.28;;;28.52;nan
12468;BME280;57850;52.922;6.256;2023-09-07T08:41:59;102354.13;;;28.67;nan
12468;BME280;57850;52.922;6.256;2023-09-07T08:44:27;102358.41;;;28.80;nan
12468;BME280;57850;52.922;6.256;2023-09-07T08:46:55;102316.78;;;29.52;nan
12468;BME280;57850;52.922;6.256;2023-09-07T08:49:23;102319.88;;;29.67;nan
12468;BME280;57850;52.922;6.256;2023-09-07T08:51:51;102330.13;;;29.54;nan
12468;BME280;57850;52.922;6.256;2023-09-07T08:54:19;102308.78;;;30.08;nan
12468;BME280;57850;52.922;6.256;2023-09-07T08:56:46;102306.44;;;30.23;nan
12468;BME280;57850;52.922;6.256;2023-09-07T08:59:13;102300.28;;;30.50;nan
12468;BME280;57850;52.922;6.256;2023-09-07T09:01:40;102316.50;;;30.40;nan
12468;BME280;57850;52.922;6.256;2023-09-07T09:04:07;102291.97;;;30.88;nan
12468;BME280;57850;52.922;6.256;2023-09-07T09:06:35;102273.13;;;31.23;nan
12468;BME280;57850;52.922;6.256;2023-09-07T09:09:02;102272.50;;;31.29;nan
12468;BME280;57850;52.922;6.256;2023-09-07T09:11:30;102283.88;;;31.51;nan
12468;BME280;57850;52.922;6.256;2023-09-07T09:13:57;102267.88;;;31.83;nan
12468;BME280;57850;52.922;6.256;2023-09-07T09:16:25;102244.44;;;32.09;nan
12468;BME280;57850;52.922;6.256;2023-09-07T09:18:53;102232.34;;;32.63;nan
12468;BME280;57850;52.922;6.256;2023-09-07T09:21:20;102217.66;;;32.82;nan
12468;BME280;57850;52.922;6.256;2023-09-07T09:23:49;102221.88;;;32.93;nan
12468;BME280;57850;52.922;6.256;2023-09-07T09:26:16;102293.00;;;31.58;nan
12468;BME280;57850;52.922;6.256;2023-09-07T09:28:43;102249.84;;;32.09;nan
12468;BME280;57850;52.922;6.256;2023-09-07T09:31:10;102194.44;;;33.92;nan
12468;BME280;57850;52.922;6.256;2023-09-07T09:33:38;102165.09;;;35.11;nan
12468;BME280;57850;52.922;6.256;2023-09-07T09:36:05;102191.66;;;34.01;nan
12468;BME280;57850;52.922;6.256;2023-09-07T09:38:32;102149.81;;;34.65;nan
12468;BME280;57850;52.922;6.256;2023-09-07T09:41:00;102157.84;;;34.27;nan
12468;BME280;57850;52.922;6.256;2023-09-07T09:43:29;102140.88;;;35.02;nan
12468;BME280;57850;52.922;6.256;2023-09-07T09:45:56;102147.97;;;35.25;nan
12468;BME280;57850;52.922;6.256;2023-09-07T09:48:23;102106.13;;;36.29;nan
12468;BME280;57850;52.922;6.256;2023-09-07T09:50:50;102068.94;;;36.78;nan
12468;BME280;57850;52.922;6.256;2023-09-07T09:53:18;102109.41;;;35.44;nan
12468;BME280;57850;52.922;6.256;2023-09-07T09:55:46;102122.25;;;34.99;nan
12468;BME280;57850;52.922;6.256;2023-09-07T09:58:14;102093.78;;;35.76;nan
12468;BME280;57850;52.922;6.256;2023-09-07T10:00:42;102091.44;;;35.73;nan
12468;BME280;57850;52.922;6.256;2023-09-07T10:03:13;102040.53;;;37.49;nan
12468;BME280;57850;52.922;6.256;2023-09-07T10:05:44;102012.78;;;37.87;nan
12468;BME280;57850;52.922;6.256;2023-09-07T10:08:13;102073.47;;;36.50;nan
12468;BME280;57850;52.922;6.256;2023-09-07T10:10:41;102006.66;;;37.85;nan
12468;BME280;57850;52.922;6.256;2023-09-07T10:13:08;102009.25;;;38.19;nan
12468;BME280;57850;52.922;6.256;2023-09-07T10:15:36;102050.09;;;37.39;nan
12468;BME280;57850;52.922;6.256;2023-09-07T10:18:10;101984.53;;;38.80;nan
12468;BME280;57850;52.922;6.256;2023-09-07T10:20:49;101961.06;;;39.30;nan
12468;BME280;57850;52.922;6.256;2023-09-07T10:23:16;101999.19;;;38.06;nan
12468;BME280;57850;52.922;6.256;2023-09-07T10:25:47;101980.09;;;38.92;nan
12468;BME280;57850;52.922;6.256;2023-09-07T10:28:21;101985.34;;;38.74;nan
12468;BME280;57850;52.922;6.256;2023-09-07T10:30:59;101961.44;;;39.40;nan
12468;BME280;57850;52.922;6.256;2023-09-07T10:33:27;102001.41;;;37.77;nan
12468;BME280;57850;52.922;6.256;2023-09-07T10:35:54;101976.56;;;38.65;nan
12468;BME280;57850;52.922;6.256;2023-09-07T10:38:22;101985.78;;;38.57;nan
12468;BME280;57850;52.922;6.256;2023-09-07T10:40:54;101963.47;;;39.51;nan
12468;BME280;57850;52.922;6.256;2023-09-07T10:43:23;101941.44;;;39.84;nan
12468;BME280;57850;52.922;6.256;2023-09-07T10:45:49;101937.56;;;39.91;nan
12468;BME280;57850;52.922;6.256;2023-09-07T10:48:17;101916.72;;;40.64;nan
12468;BME280;57850;52.922;6.256;2023-09-07T10:50:45;101912.84;;;40.29;nan
12468;BME280;57850;52.922;6.256;2023-09-07T10:53:13;101892.38;;;41.11;nan
12468;BME280;57850;52.922;6.256;2023-09-07T10:55:40;101887.44;;;41.01;nan
12468;BME280;57850;52.922;6.256;2023-09-07T10:58:08;101852.22;;;42.11;nan
12468;BME280;57850;52.922;6.256;2023-09-07T11:00:35;101872.84;;;41.37;nan
12468;BME280;57850;52.922;6.256;2023-09-07T11:03:07;101923.38;;;39.76;nan
12468;BME280;57850;52.922;6.256;2023-09-07T11:05:36;101869.44;;;41.24;nan
12468;BME280;57850;52.922;6.256;2023-09-07T11:08:05;101857.63;;;41.53;nan
12468;BME280;57850;52.922;6.256;2023-09-07T11:10:33;101901.38;;;40.21;nan
12468;BME280;57850;52.922;6.256;2023-09-07T11:13:02;101847.69;;;41.82;nan
12468;BME280;57850;52.922;6.256;2023-09-07T11:15:30;101855.47;;;41.55;nan
12468;BME280;57850;52.922;6.256;2023-09-07T11:17:57;101833.72;;;41.83;nan
12468;BME280;57850;52.922;6.256;2023-09-07T11:20:24;101838.69;;;41.63;nan
12468;BME280;57850;52.922;6.256;2023-09-07T11:22:53;101836.47;;;41.83;nan
12468;BME280;57850;52.922;6.256;2023-09-07T11:25:20;101834.09;;;41.87;nan
12468;BME280;57850;52.922;6.256;2023-09-07T11:27:46;101916.53;;;39.16;nan
12468;BME280;57850;52.922;6.256;2023-09-07T11:30:13;101835.84;;;41.70;nan
12468;BME280;57850;52.922;6.256;2023-09-07T11:32:39;101819.75;;;42.08;nan
12468;BME280;57850;52.922;6.256;2023-09-07T11:35:09;101815.13;;;42.20;nan
12468;BME280;57850;52.922;6.256;2023-09-07T11:37:36;101800.63;;;42.59;nan
12468;BME280;57850;52.922;6.256;2023-09-07T11:40:05;101804.13;;;42.20;nan
12468;BME280;57850;52.922;6.256;2023-09-07T11:42:36;101808.41;;;42.04;nan
12468;BME280;57850;52.922;6.256;2023-09-07T11:45:05;101812.03;;;41.82;nan
12468;BME280;57850;52.922;6.256;2023-09-07T11:47:32;101895.19;;;39.44;nan
12468;BME280;57850;52.922;6.256;2023-09-07T11:49:59;101875.81;;;39.52;nan
12468;BME280;57850;52.922;6.256;2023-09-07T11:52:26;101809.72;;;41.67;nan
12468;BME280;57850;52.922;6.256;2023-09-07T11:54:53;101782.75;;;42.74;nan
12468;BME280;57850;52.922;6.256;2023-09-07T11:57:21;101790.63;;;42.30;nan
12468;BME280;57850;52.922;6.256;2023-09-07T11:59:48;101755.78;;;42.99;nan
12468;BME280;57850;52.922;6.256;2023-09-07T12:02:14;101860.72;;;39.99;nan
12468;BME280;57850;52.922;6.256;2023-09-07T12:04:42;101826.84;;;40.61;nan
12468;BME280;57850;52.922;6.256;2023-09-07T12:07:09;101866.44;;;39.35;nan
12468;BME280;57850;52.922;6.256;2023-09-07T12:09:36;101804.50;;;41.24;nan
12468;BME280;57850;52.922;6.256;2023-09-07T12:12:04;101781.38;;;41.85;nan
12468;BME280;57850;52.922;6.256;2023-09-07T12:14:32;101777.56;;;41.97;nan
12468;BME280;57850;52.922;6.256;2023-09-07T12:16:58;101749.72;;;42.68;nan
12468;BME280;57850;52.922;6.256;2023-09-07T12:19:25;101754.25;;;42.35;nan
12468;BME280;57850;52.922;6.256;2023-09-07T12:21:52;101774.00;;;41.85;nan
12468;BME280;57850;52.922;6.256;2023-09-07T12:24:19;101733.28;;;42.85;nan
12468;BME280;57850;52.922;6.256;2023-09-07T12:26:45;101751.84;;;42.27;nan
12468;BME280;57850;52.922;6.256;2023-09-07T12:29:12;101759.38;;;42.08;nan
12468;BME280;57850;52.922;6.256;2023-09-07T12:31:40;101723.09;;;42.86;nan
12468;BME280;57850;52.922;6.256;2023-09-07T12:34:06;101726.69;;;42.86;nan
12468;BME280;57850;52.922;6.256;2023-09-07T12:36:34;101731.84;;;42.83;nan
12468;BME280;57850;52.922;6.256;2023-09-07T12:39:01;101730.66;;;42.50;nan
12468;BME280;57850;52.922;6.256;2023-09-07T12:41:29;101706.69;;;43.19;nan
12468;BME280;57850;52.922;6.256;2023-09-07T12:43:56;101701.63;;;43.66;nan
12468;BME280;57850;52.922;6.256;2023-09-07T12:46:23;101751.41;;;42.06;nan
12468;BME280;57850;52.922;6.256;2023-09-07T12:48:51;101781.59;;;41.07;nan
12468;BME280;57850;52.922;6.256;2023-09-07T12:51:18;101757.75;;;41.72;nan
12468;BME280;57850;52.922;6.256;2023-09-07T12:53:44;101725.41;;;42.60;nan
12468;BME280;57850;52.922;6.256;2023-09-07T12:56:11;101727.25;;;42.72;nan
12468;BME280;57850;52.922;6.256;2023-09-07T12:58:38;101727.41;;;42.65;nan
12468;BME280;57850;52.922;6.256;2023-09-07T13:01:05;101743.03;;;42.25;nan
12468;BME280;57850;52.922;6.256;2023-09-07T13:03:35;101797.06;;;40.53;nan
12468;BME280;57850;52.922;6.256;2023-09-07T13:06:03;101781.47;;;40.84;nan
12468;BME280;57850;52.922;6.256;2023-09-07T13:08:30;101758.69;;;41.54;nan
12468;BME280;57850;52.922;6.256;2023-09-07T13:10:56;101732.44;;;42.05;nan